sensor_id;sensor_type;location;lat;lon;timestamp;P1;durP1;ratioP1;P2;durP2;ratioP2
23410;SDS011;11878;51.774;7.220;2023-07-30T00:02:18;6.37;;;3.80;;
23410;SDS011;11878;51.774;7.220;2023-07-30T00:05:20;4.80;;;3.00;;
23410;SDS011;11878;51.774;7.220;2023-07-30T00:08:22;6.90;;;3.77;;
23410;SDS011;11878;51.774;7.220;2023-07-30T00:11:24;5.87;;;3.73;;
23410;SDS011;11878;51.774;7.220;2023-07-30T00:14:26;9.60;;;3.90;;
23410;SDS011;11878;51.774;7.220;2023-07-30T00:17:28;9.17;;;3.67;;
23410;SDS011;11878;51.774;7.220;2023-07-30T00:20:30;5.93;;;3.70;;
23410;SDS011;11878;51.774;7.220;2023-07-30T00:23:32;9.20;;;3.37;;
23410;SDS011;11878;51.774;7.220;2023-07-30T00:26:34;8.43;;;3.93;;
23410;SDS011;11878;51.774;7.220;2023-07-30T00:29:36;5.30;;;3.33;;
23410;SDS011;11878;51.774;7.220;2023-07-30T00:32:38;8.03;;;3.23;;
23410;SDS011;11878;51.774;7.220;2023-07-30T00:35:46;6.23;;;3.00;;
23410;SDS011;11878;51.774;7.220;2023-07-30T00:38:48;6.53;;;3.00;;
23410;SDS011;11878;51.774;7.220;2023-07-30T00:41:49;8.10;;;3.40;;
23410;SDS011;11878;51.774;7.220;2023-07-30T00:44:52;4.33;;;2.07;;
23410;SDS011;11878;51.774;7.220;2023-07-30T00:47:53;4.20;;;2.30;;
23410;SDS011;11878;51.774;7.220;2023-07-30T00:50:55;4.70;;;2.50;;
23410;SDS011;11878;51.774;7.220;2023-07-30T00:53:58;6.33;;;2.50;;
23410;SDS011;11878;51.774;7.220;2023-07-30T00:57:00;7.07;;;2.53;;
23410;SDS011;11878;51.774;7.220;2023-07-30T01:00:02;3.60;;;1.97;;
23410;SDS011;11878;51.774;7.220;2023-07-30T01:03:07;5.97;;;2.43;;
23410;SDS011;11878;51.774;7.220;2023-07-30T01:06:08;5.83;;;2.37;;
23410;SDS011;11878;51.774;7.220;2023-07-30T01:09:10;6.97;;;2.33;;
23410;SDS011;11878;51.774;7.220;2023-07-30T01:12:12;4.23;;;2.10;;
23410;SDS011;11878;51.774;7.220;2023-07-30T01:15:16;6.27;;;2.20;;
23410;SDS011;11878;51.774;7.220;2023-07-30T01:18:18;5.70;;;1.97;;
23410;SDS011;11878;51.774;7.220;2023-07-30T01:21:20;5.30;;;1.90;;
23410;SDS011;11878;51.774;7.220;2023-07-30T01:24:22;6.80;;;1.90;;
23410;SDS011;11878;51.774;7.220;2023-07-30T01:27:31;5.03;;;2.10;;
23410;SDS011;11878;51.774;7.220;2023-07-30T01:30:39;8.70;;;2.33;;
23410;SDS011;11878;51.774;7.220;2023-07-30T01:33:43;3.27;;;1.80;;
23410;SDS011;11878;51.774;7.220;2023-07-30T01:36:53;4.60;;;1.93;;
23410;SDS011;11878;51.774;7.220;2023-07-30T01:39:58;8.47;;;2.87;;
23410;SDS011;11878;51.774;7.220;2023-07-30T01:43:00;6.83;;;2.43;;
23410;SDS011;11878;51.774;7.220;2023-07-30T01:46:02;5.93;;;2.00;;
23410;SDS011;11878;51.774;7.220;2023-07-30T01:49:04;6.90;;;1.70;;
23410;SDS011;11878;51.774;7.220;2023-07-30T01:52:06;3.67;;;2.10;;
23410;SDS011;11878;51.774;7.220;2023-07-30T01:55:08;6.37;;;1.70;;
23410;SDS011;11878;51.774;7.220;2023-07-30T01:58:10;5.17;;;1.87;;
23410;SDS011;11878;51.774;7.220;2023-07-30T02:01:12;7.30;;;2.13;;
23410;SDS011;11878;51.774;7.220;2023-07-30T02:04:14;4.87;;;1.60;;
23410;SDS011;11878;51.774;7.220;2023-07-30T02:07:17;4.83;;;1.77;;
23410;SDS011;11878;51.774;7.220;2023-07-30T02:10:19;4.03;;;1.70;;
23410;SDS011;11878;51.774;7.220;2023-07-30T02:13:21;10.87;;;1.90;;
23410;SDS011;11878;51.774;7.220;2023-07-30T02:16:24;5.53;;;1.90;;
23410;SDS011;11878;51.774;7.220;2023-07-30T02:19:27;9.40;;;1.80;;
23410;SDS011;11878;51.774;7.220;2023-07-30T02:22:29;7.87;;;1.93;;
23410;SDS011;11878;51.774;7.220;2023-07-30T02:25:31;4.50;;;2.00;;
23410;SDS011;11878;51.774;7.220;2023-07-30T02:28:33;6.33;;;1.80;;
23410;SDS011;11878;51.774;7.220;2023-07-30T02:31:42;9.93;;;2.13;;
23410;SDS011;11878;51.774;7.220;2023-07-30T02:34:44;4.60;;;1.57;;
23410;SDS011;11878;51.774;7.220;2023-07-30T02:37:45;7.73;;;2.23;;
23410;SDS011;11878;51.774;7.220;2023-07-30T02:40:48;7.60;;;1.97;;
23410;SDS011;11878;51.774;7.220;2023-07-30T02:43:50;3.77;;;1.63;;
23410;SDS011;11878;51.774;7.220;2023-07-30T02:46:52;5.23;;;1.60;;
23410;SDS011;11878;51.774;7.220;2023-07-30T02:49:59;3.73;;;1.70;;
23410;SDS011;11878;51.774;7.220;2023-07-30T02:53:01;5.13;;;1.83;;
23410;SDS011;11878;51.774;7.220;2023-07-30T02:56:06;5.60;;;2.37;;
23410;SDS011;11878;51.774;7.220;2023-07-30T02:59:08;4.53;;;1.63;;
23410;SDS011;11878;51.774;7.220;2023-07-30T03:02:10;6.93;;;1.60;;
23410;SDS011;11878;51.774;7.220;2023-07-30T03:05:12;5.67;;;1.97;;
23410;SDS011;11878;51.774;7.220;2023-07-30T03:08:14;7.30;;;2.20;;
23410;SDS011;11878;51.774;7.220;2023-07-30T03:11:19;5.83;;;2.27;;
23410;SDS011;11878;51.774;7.220;2023-07-30T03:14:22;5.60;;;2.03;;
23410;SDS011;11878;51.774;7.220;2023-07-30T03:17:25;5.93;;;1.90;;
23410;SDS011;11878;51.774;7.220;2023-07-30T03:20:27;5.57;;;2.03;;
23410;SDS011;11878;51.774;7.220;2023-07-30T03:23:29;6.23;;;2.40;;
23410;SDS011;11878;51.774;7.220;2023-07-30T03:26:31;9.70;;;2.17;;
23410;SDS011;11878;51.774;7.220;2023-07-30T03:29:34;5.10;;;1.60;;
23410;SDS011;11878;51.774;7.220;2023-07-30T03:32:36;3.20;;;1.80;;
23410;SDS011;11878;51.774;7.220;2023-07-30T03:35:39;4.77;;;1.77;;
23410;SDS011;11878;51.774;7.220;2023-07-30T03:38:42;6.40;;;1.80;;
23410;SDS011;11878;51.774;7.220;2023-07-30T03:41:44;6.23;;;2.20;;
23410;SDS011;11878;51.774;7.220;2023-07-30T03:44:49;3.60;;;1.60;;
23410;SDS011;11878;51.774;7.220;2023-07-30T03:47:51;9.67;;;1.77;;
23410;SDS011;11878;51.774;7.220;2023-07-30T03:50:53;4.67;;;1.97;;
23410;SDS011;11878;51.774;7.220;2023-07-30T03:53:57;8.80;;;2.30;;
23410;SDS011;11878;51.774;7.220;2023-07-30T03:57:00;8.33;;;1.77;;
23410;SDS011;11878;51.774;7.220;2023-07-30T04:00:03;7.43;;;1.73;;
23410;SDS011;11878;51.774;7.220;2023-07-30T04:03:14;9.93;;;2.00;;
23410;SDS011;11878;51.774;7.220;2023-07-30T04:06:21;4.87;;;1.87;;
23410;SDS011;11878;51.774;7.220;2023-07-30T04:09:23;10.20;;;2.00;;
23410;SDS011;11878;51.774;7.220;2023-07-30T04:12:26;9.40;;;1.70;;
23410;SDS011;11878;51.774;7.220;2023-07-30T04:15:28;6.53;;;2.20;;
23410;SDS011;11878;51.774;7.220;2023-07-30T04:18:31;7.30;;;2.37;;
23410;SDS011;11878;51.774;7.220;2023-07-30T04:21:33;17.90;;;2.77;;
23410;SDS011;11878;51.774;7.220;2023-07-30T04:24:35;6.90;;;1.80;;
23410;SDS011;11878;51.774;7.220;2023-07-30T04:27:37;5.87;;;1.97;;
23410;SDS011;11878;51.774;7.220;2023-07-30T04:30:39;4.90;;;2.13;;
23410;SDS011;11878;51.774;7.220;2023-07-30T04:33:47;5.67;;;2.17;;
23410;SDS011;11878;51.774;7.220;2023-07-30T04:36:51;7.20;;;2.00;;
23410;SDS011;11878;51.774;7.220;2023-07-30T04:39:54;7.17;;;2.20;;
23410;SDS011;11878;51.774;7.220;2023-07-30T04:42:58;6.37;;;1.70;;
23410;SDS011;11878;51.774;7.220;2023-07-30T04:46:02;6.33;;;2.13;;
23410;SDS011;11878;51.774;7.220;2023-07-30T04:49:05;4.37;;;1.93;;
23410;SDS011;11878;51.774;7.220;2023-07-30T04:52:07;10.93;;;2.40;;
23410;SDS011;11878;51.774;7.220;2023-07-30T04:55:10;8.37;;;2.50;;
23410;SDS011;11878;51.774;7.220;2023-07-30T04:58:14;6.00;;;2.10;;
23410;SDS011;11878;51.774;7.220;2023-07-30T05:01:16;7.67;;;2.20;;
23410;SDS011;11878;51.774;7.220;2023-07-30T05:04:18;8.53;;;2.30;;
23410;SDS011;11878;51.774;7.220;2023-07-30T05:07:24;9.63;;;2.17;;
23410;SDS011;11878;51.774;7.220;2023-07-30T05:10:26;8.20;;;2.53;;
23410;SDS011;11878;51.774;7.220;2023-07-30T05:13:28;8.60;;;2.93;;
23410;SDS011;11878;51.774;7.220;2023-07-30T05:16:31;13.43;;;3.10;;
23410;SDS011;11878;51.774;7.220;2023-07-30T05:19:37;12.43;;;3.67;;
23410;SDS011;11878;51.774;7.220;2023-07-30T05:22:39;11.47;;;4.20;;
23410;SDS011;11878;51.774;7.220;2023-07-30T05:25:41;12.17;;;4.27;;
23410;SDS011;11878;51.774;7.220;2023-07-30T05:28:43;11.83;;;4.40;;
23410;SDS011;11878;51.774;7.220;2023-07-30T05:31:47;10.27;;;4.10;;
23410;SDS011;11878;51.774;7.220;2023-07-30T05:34:49;13.13;;;4.73;;
23410;SDS011;11878;51.774;7.220;2023-07-30T05:37:51;9.43;;;4.90;;
23410;SDS011;11878;51.774;7.220;2023-07-30T05:40:55;10.87;;;5.07;;
23410;SDS011;11878;51.774;7.220;2023-07-30T05:44:00;16.33;;;5.20;;
23410;SDS011;11878;51.774;7.220;2023-07-30T05:47:02;12.63;;;5.40;;
23410;SDS011;11878;51.774;7.220;2023-07-30T05:50:06;15.47;;;5.03;;
23410;SDS011;11878;51.774;7.220;2023-07-30T05:53:08;9.37;;;4.93;;
23410;SDS011;11878;51.774;7.220;2023-07-30T05:56:15;13.63;;;5.03;;
23410;SDS011;11878;51.774;7.220;2023-07-30T05:59:22;13.47;;;5.13;;
23410;SDS011;11878;51.774;7.220;2023-07-30T06:02:24;18.77;;;5.67;;
23410;SDS011;11878;51.774;7.220;2023-07-30T06:05:26;9.00;;;4.43;;
23410;SDS011;11878;51.774;7.220;2023-07-30T06:08:28;11.13;;;4.43;;
23410;SDS011;11878;51.774;7.220;2023-07-30T06:11:31;18.00;;;4.93;;
23410;SDS011;11878;51.774;7.220;2023-07-30T06:14:32;13.67;;;5.93;;
23410;SDS011;11878;51.774;7.220;2023-07-30T06:17:38;16.50;;;5.10;;
23410;SDS011;11878;51.774;7.220;2023-07-30T06:20:46;14.10;;;4.90;;
23410;SDS011;11878;51.774;7.220;2023-07-30T06:24:14;13.03;;;4.27;;
23410;SDS011;11878;51.774;7.220;2023-07-30T06:27:19;12.97;;;4.10;;
23410;SDS011;11878;51.774;7.220;2023-07-30T06:30:28;6.67;;;3.83;;
23410;SDS011;11878;51.774;7.220;2023-07-30T06:33:30;18.10;;;5.07;;
23410;SDS011;11878;51.774;7.220;2023-07-30T06:36:33;14.93;;;4.97;;
23410;SDS011;11878;51.774;7.220;2023-07-30T06:39:35;18.20;;;5.00;;
23410;SDS011;11878;51.774;7.220;2023-07-30T06:42:37;14.03;;;4.80;;
23410;SDS011;11878;51.774;7.220;2023-07-30T06:45:42;22.10;;;5.73;;
23410;SDS011;11878;51.774;7.220;2023-07-30T06:48:49;12.60;;;4.57;;
23410;SDS011;11878;51.774;7.220;2023-07-30T06:51:57;20.97;;;5.47;;
23410;SDS011;11878;51.774;7.220;2023-07-30T06:55:00;13.30;;;4.60;;
23410;SDS011;11878;51.774;7.220;2023-07-30T06:58:02;20.73;;;6.00;;
23410;SDS011;11878;51.774;7.220;2023-07-30T07:01:08;10.87;;;4.87;;
23410;SDS011;11878;51.774;7.220;2023-07-30T07:04:11;17.57;;;5.70;;
23410;SDS011;11878;51.774;7.220;2023-07-30T07:07:27;21.57;;;5.73;;
23410;SDS011;11878;51.774;7.220;2023-07-30T07:10:41;16.90;;;5.70;;
23410;SDS011;11878;51.774;7.220;2023-07-30T07:13:45;15.63;;;5.50;;
23410;SDS011;11878;51.774;7.220;2023-07-30T07:16:53;16.13;;;5.97;;
23410;SDS011;11878;51.774;7.220;2023-07-30T07:20:05;16.57;;;6.37;;
23410;SDS011;11878;51.774;7.220;2023-07-30T07:23:08;19.70;;;6.63;;
23410;SDS011;11878;51.774;7.220;2023-07-30T07:26:17;13.57;;;6.17;;
23410;SDS011;11878;51.774;7.220;2023-07-30T07:29:19;26.17;;;7.17;;
23410;SDS011;11878;51.774;7.220;2023-07-30T07:32:23;20.33;;;6.30;;
23410;SDS011;11878;51.774;7.220;2023-07-30T07:35:25;14.73;;;5.90;;
23410;SDS011;11878;51.774;7.220;2023-07-30T07:38:28;19.83;;;6.80;;
23410;SDS011;11878;51.774;7.220;2023-07-30T07:41:30;21.07;;;6.10;;
23410;SDS011;11878;51.774;7.220;2023-07-30T07:44:31;15.23;;;5.67;;
23410;SDS011;11878;51.774;7.220;2023-07-30T07:47:33;16.97;;;7.37;;
23410;SDS011;11878;51.774;7.220;2023-07-30T07:50:36;16.73;;;6.03;;
23410;SDS011;11878;51.774;7.220;2023-07-30T07:53:41;21.33;;;6.53;;
23410;SDS011;11878;51.774;7.220;2023-07-30T07:56:47;14.73;;;6.03;;
23410;SDS011;11878;51.774;7.220;2023-07-30T07:59:52;16.10;;;5.97;;
23410;SDS011;11878;51.774;7.220;2023-07-30T08:02:58;16.73;;;4.80;;
23410;SDS011;11878;51.774;7.220;2023-07-30T08:06:00;14.97;;;5.10;;
23410;SDS011;11878;51.774;7.220;2023-07-30T08:09:03;14.07;;;5.40;;
23410;SDS011;11878;51.774;7.220;2023-07-30T08:12:05;18.23;;;5.03;;
23410;SDS011;11878;51.774;7.220;2023-07-30T08:15:07;14.67;;;4.47;;
23410;SDS011;11878;51.774;7.220;2023-07-30T08:18:09;10.10;;;4.53;;
23410;SDS011;11878;51.774;7.220;2023-07-30T08:21:11;13.93;;;4.30;;
23410;SDS011;11878;51.774;7.220;2023-07-30T08:24:16;15.67;;;4.20;;
23410;SDS011;11878;51.774;7.220;2023-07-30T08:27:18;13.13;;;4.27;;
23410;SDS011;11878;51.774;7.220;2023-07-30T08:30:27;13.43;;;4.23;;
23410;SDS011;11878;51.774;7.220;2023-07-30T08:33:29;11.47;;;4.50;;
23410;SDS011;11878;51.774;7.220;2023-07-30T08:36:31;15.67;;;4.03;;
23410;SDS011;11878;51.774;7.220;2023-07-30T08:39:34;12.13;;;4.23;;
23410;SDS011;11878;51.774;7.220;2023-07-30T08:42:36;11.40;;;4.57;;
23410;SDS011;11878;51.774;7.220;2023-07-30T08:45:38;9.67;;;3.97;;
23410;SDS011;11878;51.774;7.220;2023-07-30T08:48:41;12.53;;;4.63;;
23410;SDS011;11878;51.774;7.220;2023-07-30T08:51:46;10.50;;;3.97;;
23410;SDS011;11878;51.774;7.220;2023-07-30T08:54:54;8.27;;;3.67;;
23410;SDS011;11878;51.774;7.220;2023-07-30T08:58:01;11.53;;;3.30;;
23410;SDS011;11878;51.774;7.220;2023-07-30T09:01:07;11.37;;;3.57;;
23410;SDS011;11878;51.774;7.220;2023-07-30T09:04:12;7.07;;;3.30;;
23410;SDS011;11878;51.774;7.220;2023-07-30T09:07:18;11.87;;;3.20;;
23410;SDS011;11878;51.774;7.220;2023-07-30T09:10:25;7.93;;;2.73;;
23410;SDS011;11878;51.774;7.220;2023-07-30T09:13:27;13.67;;;3.33;;
23410;SDS011;11878;51.774;7.220;2023-07-30T09:16:29;8.10;;;3.10;;
23410;SDS011;11878;51.774;7.220;2023-07-30T09:19:34;12.83;;;2.93;;
23410;SDS011;11878;51.774;7.220;2023-07-30T09:22:37;12.33;;;3.20;;
23410;SDS011;11878;51.774;7.220;2023-07-30T09:25:42;9.07;;;2.60;;
23410;SDS011;11878;51.774;7.220;2023-07-30T09:28:44;11.77;;;2.97;;
23410;SDS011;11878;51.774;7.220;2023-07-30T09:31:47;9.40;;;2.63;;
23410;SDS011;11878;51.774;7.220;2023-07-30T09:34:52;11.67;;;2.90;;
23410;SDS011;11878;51.774;7.220;2023-07-30T09:37:58;10.47;;;2.80;;
23410;SDS011;11878;51.774;7.220;2023-07-30T09:41:01;7.70;;;2.17;;
23410;SDS011;11878;51.774;7.220;2023-07-30T09:44:04;6.43;;;2.33;;
23410;SDS011;11878;51.774;7.220;2023-07-30T09:47:09;8.20;;;2.20;;
23410;SDS011;11878;51.774;7.220;2023-07-30T09:50:12;8.77;;;2.20;;
23410;SDS011;11878;51.774;7.220;2023-07-30T09:53:15;6.67;;;1.77;;
23410;SDS011;11878;51.774;7.220;2023-07-30T09:56:18;8.23;;;1.90;;
23410;SDS011;11878;51.774;7.220;2023-07-30T09:59:23;8.70;;;1.87;;
23410;SDS011;11878;51.774;7.220;2023-07-30T10:02:25;8.23;;;1.80;;
23410;SDS011;11878;51.774;7.220;2023-07-30T10:05:34;5.40;;;1.53;;
23410;SDS011;11878;51.774;7.220;2023-07-30T10:08:38;6.07;;;1.40;;
23410;SDS011;11878;51.774;7.220;2023-07-30T10:11:41;12.33;;;1.60;;
23410;SDS011;11878;51.774;7.220;2023-07-30T10:14:45;6.63;;;1.80;;
23410;SDS011;11878;51.774;7.220;2023-07-30T10:17:52;8.83;;;1.47;;
23410;SDS011;11878;51.774;7.220;2023-07-30T10:20:57;4.40;;;1.13;;
23410;SDS011;11878;51.774;7.220;2023-07-30T10:24:01;8.60;;;1.60;;
23410;SDS011;11878;51.774;7.220;2023-07-30T10:27:05;14.20;;;1.50;;
23410;SDS011;11878;51.774;7.220;2023-07-30T10:30:20;9.63;;;1.30;;
23410;SDS011;11878;51.774;7.220;2023-07-30T10:33:23;8.10;;;1.17;;
23410;SDS011;11878;51.774;7.220;2023-07-30T10:36:49;6.33;;;1.23;;
23410;SDS011;11878;51.774;7.220;2023-07-30T10:39:51;8.93;;;1.17;;
23410;SDS011;11878;51.774;7.220;2023-07-30T10:42:53;9.90;;;1.20;;
23410;SDS011;11878;51.774;7.220;2023-07-30T10:45:59;17.47;;;1.60;;
23410;SDS011;11878;51.774;7.220;2023-07-30T10:49:03;4.90;;;1.23;;
23410;SDS011;11878;51.774;7.220;2023-07-30T10:52:07;8.37;;;1.27;;
23410;SDS011;11878;51.774;7.220;2023-07-30T10:55:09;8.20;;;1.30;;
23410;SDS011;11878;51.774;7.220;2023-07-30T10:58:11;12.50;;;2.03;;
23410;SDS011;11878;51.774;7.220;2023-07-30T11:01:14;6.53;;;1.20;;
23410;SDS011;11878;51.774;7.220;2023-07-30T11:04:18;6.07;;;1.50;;
23410;SDS011;11878;51.774;7.220;2023-07-30T11:07:21;6.13;;;1.60;;
23410;SDS011;11878;51.774;7.220;2023-07-30T11:10:23;8.77;;;1.43;;
23410;SDS011;11878;51.774;7.220;2023-07-30T11:13:28;4.97;;;1.20;;
23410;SDS011;11878;51.774;7.220;2023-07-30T11:16:30;9.27;;;1.83;;
23410;SDS011;11878;51.774;7.220;2023-07-30T11:19:37;7.83;;;1.60;;
23410;SDS011;11878;51.774;7.220;2023-07-30T11:22:45;7.03;;;1.00;;
23410;SDS011;11878;51.774;7.220;2023-07-30T11:25:48;10.73;;;1.43;;
23410;SDS011;11878;51.774;7.220;2023-07-30T11:28:51;10.77;;;1.85;;
23410;SDS011;11878;51.774;7.220;2023-07-30T11:31:55;7.13;;;1.20;;
23410;SDS011;11878;51.774;7.220;2023-07-30T11:35:00;4.30;;;1.27;;
23410;SDS011;11878;51.774;7.220;2023-07-30T11:38:06;9.33;;;1.07;;
23410;SDS011;11878;51.774;7.220;2023-07-30T11:41:09;8.53;;;1.37;;
23410;SDS011;11878;51.774;7.220;2023-07-30T11:44:32;4.80;;;1.07;;
23410;SDS011;11878;51.774;7.220;2023-07-30T11:47:39;6.27;;;0.97;;
23410;SDS011;11878;51.774;7.220;2023-07-30T11:50:42;4.17;;;1.20;;
23410;SDS011;11878;51.774;7.220;2023-07-30T11:56:55;9.00;;;1.10;;
23410;SDS011;11878;51.774;7.220;2023-07-30T11:59:57;10.57;;;1.43;;
23410;SDS011;11878;51.774;7.220;2023-07-30T12:03:04;5.27;;;1.30;;
23410;SDS011;11878;51.774;7.220;2023-07-30T12:06:11;6.83;;;1.30;;
23410;SDS011;11878;51.774;7.220;2023-07-30T12:09:21;6.23;;;1.13;;
23410;SDS011;11878;51.774;7.220;2023-07-30T12:12:27;18.30;;;2.90;;
23410;SDS011;11878;51.774;7.220;2023-07-30T12:15:29;6.97;;;1.13;;
23410;SDS011;11878;51.774;7.220;2023-07-30T12:18:31;1.93;;;0.80;;
23410;SDS011;11878;51.774;7.220;2023-07-30T12:21:33;6.67;;;0.73;;
23410;SDS011;11878;51.774;7.220;2023-07-30T12:24:38;2.10;;;0.67;;
23410;SDS011;11878;51.774;7.220;2023-07-30T12:27:42;2.30;;;0.53;;
23410;SDS011;11878;51.774;7.220;2023-07-30T12:30:47;3.20;;;0.80;;
23410;SDS011;11878;51.774;7.220;2023-07-30T12:33:49;5.00;;;1.10;;
23410;SDS011;11878;51.774;7.220;2023-07-30T12:36:52;4.37;;;1.00;;
23410;SDS011;11878;51.774;7.220;2023-07-30T12:39:55;3.47;;;0.90;;
23410;SDS011;11878;51.774;7.220;2023-07-30T12:43:06;5.00;;;0.90;;
23410;SDS011;11878;51.774;7.220;2023-07-30T12:46:11;4.43;;;1.20;;
23410;SDS011;11878;51.774;7.220;2023-07-30T12:49:13;5.70;;;1.43;;
23410;SDS011;11878;51.774;7.220;2023-07-30T12:52:15;4.00;;;1.40;;
23410;SDS011;11878;51.774;7.220;2023-07-30T12:55:18;4.03;;;1.10;;
23410;SDS011;11878;51.774;7.220;2023-07-30T12:58:21;4.80;;;1.30;;
23410;SDS011;11878;51.774;7.220;2023-07-30T13:01:23;5.50;;;1.50;;
23410;SDS011;11878;51.774;7.220;2023-07-30T13:04:26;7.67;;;1.50;;
23410;SDS011;11878;51.774;7.220;2023-07-30T13:07:30;4.40;;;1.40;;
23410;SDS011;11878;51.774;7.220;2023-07-30T13:10:33;4.83;;;1.37;;
23410;SDS011;11878;51.774;7.220;2023-07-30T13:13:37;4.53;;;1.30;;
23410;SDS011;11878;51.774;7.220;2023-07-30T13:16:41;5.00;;;1.50;;
23410;SDS011;11878;51.774;7.220;2023-07-30T13:19:43;4.90;;;1.80;;
23410;SDS011;11878;51.774;7.220;2023-07-30T13:22:49;12.43;;;1.93;;
23410;SDS011;11878;51.774;7.220;2023-07-30T13:25:53;6.70;;;1.60;;
23410;SDS011;11878;51.774;7.220;2023-07-30T13:28:55;4.30;;;1.60;;
23410;SDS011;11878;51.774;7.220;2023-07-30T13:31:57;5.27;;;1.40;;
23410;SDS011;11878;51.774;7.220;2023-07-30T13:34:59;6.97;;;1.40;;
23410;SDS011;11878;51.774;7.220;2023-07-30T13:38:01;6.93;;;1.60;;
23410;SDS011;11878;51.774;7.220;2023-07-30T13:41:08;6.90;;;1.47;;
23410;SDS011;11878;51.774;7.220;2023-07-30T13:44:10;6.30;;;1.70;;
23410;SDS011;11878;51.774;7.220;2023-07-30T13:47:12;8.47;;;2.00;;
23410;SDS011;11878;51.774;7.220;2023-07-30T13:50:17;6.80;;;1.77;;
23410;SDS011;11878;51.774;7.220;2023-07-30T13:53:22;7.40;;;1.43;;
23410;SDS011;11878;51.774;7.220;2023-07-30T13:56:24;5.40;;;1.10;;
23410;SDS011;11878;51.774;7.220;2023-07-30T13:59:26;6.80;;;1.60;;
23410;SDS011;11878;51.774;7.220;2023-07-30T14:02:30;7.77;;;1.37;;
23410;SDS011;11878;51.774;7.220;2023-07-30T14:05:39;6.80;;;1.40;;
23410;SDS011;11878;51.774;7.220;2023-07-30T14:08:41;5.73;;;1.07;;
23410;SDS011;11878;51.774;7.220;2023-07-30T14:11:44;3.00;;;1.07;;
23410;SDS011;11878;51.774;7.220;2023-07-30T14:14:49;5.97;;;1.17;;
23410;SDS011;11878;51.774;7.220;2023-07-30T14:17:51;3.83;;;1.07;;
23410;SDS011;11878;51.774;7.220;2023-07-30T14:21:03;1.63;;;0.80;;
23410;SDS011;11878;51.774;7.220;2023-07-30T14:24:09;5.13;;;1.33;;
23410;SDS011;11878;51.774;7.220;2023-07-30T14:27:12;6.03;;;1.07;;
23410;SDS011;11878;51.774;7.220;2023-07-30T14:30:14;4.93;;;1.00;;
23410;SDS011;11878;51.774;7.220;2023-07-30T14:33:17;5.40;;;1.10;;
23410;SDS011;11878;51.774;7.220;2023-07-30T14:36:19;6.43;;;1.17;;
23410;SDS011;11878;51.774;7.220;2023-07-30T14:39:22;3.37;;;1.00;;
23410;SDS011;11878;51.774;7.220;2023-07-30T14:42:58;7.47;;;1.30;;
23410;SDS011;11878;51.774;7.220;2023-07-30T14:46:04;3.23;;;0.87;;
23410;SDS011;11878;51.774;7.220;2023-07-30T14:49:14;4.70;;;1.20;;
23410;SDS011;11878;51.774;7.220;2023-07-30T14:52:32;4.10;;;0.80;;
23410;SDS011;11878;51.774;7.220;2023-07-30T14:55:47;4.93;;;0.97;;
23410;SDS011;11878;51.774;7.220;2023-07-30T14:58:50;7.27;;;1.07;;
23410;SDS011;11878;51.774;7.220;2023-07-30T15:01:57;3.13;;;0.80;;
23410;SDS011;11878;51.774;7.220;2023-07-30T15:05:07;2.03;;;0.70;;
23410;SDS011;11878;51.774;7.220;2023-07-30T15:08:10;4.20;;;1.20;;
23410;SDS011;11878;51.774;7.220;2023-07-30T15:11:15;3.37;;;0.83;;
23410;SDS011;11878;51.774;7.220;2023-07-30T15:14:25;4.33;;;0.93;;
23410;SDS011;11878;51.774;7.220;2023-07-30T15:17:35;5.23;;;1.10;;
23410;SDS011;11878;51.774;7.220;2023-07-30T15:20:41;3.07;;;1.23;;
23410;SDS011;11878;51.774;7.220;2023-07-30T15:23:46;2.80;;;1.13;;
23410;SDS011;11878;51.774;7.220;2023-07-30T15:26:53;4.40;;;1.47;;
23410;SDS011;11878;51.774;7.220;2023-07-30T15:29:56;6.00;;;0.87;;
23410;SDS011;11878;51.774;7.220;2023-07-30T15:33:14;5.27;;;1.13;;
23410;SDS011;11878;51.774;7.220;2023-07-30T15:36:28;9.23;;;1.80;;
23410;SDS011;11878;51.774;7.220;2023-07-30T15:39:31;3.43;;;1.13;;
23410;SDS011;11878;51.774;7.220;2023-07-30T15:42:53;4.53;;;0.93;;
23410;SDS011;11878;51.774;7.220;2023-07-30T15:45:58;6.30;;;1.27;;
23410;SDS011;11878;51.774;7.220;2023-07-30T15:49:12;3.20;;;1.20;;
23410;SDS011;11878;51.774;7.220;2023-07-30T15:52:15;3.27;;;1.00;;
23410;SDS011;11878;51.774;7.220;2023-07-30T15:55:21;4.00;;;1.00;;
23410;SDS011;11878;51.774;7.220;2023-07-30T15:58:24;6.27;;;1.20;;
23410;SDS011;11878;51.774;7.220;2023-07-30T16:01:28;7.30;;;1.20;;
23410;SDS011;11878;51.774;7.220;2023-07-30T16:04:41;2.93;;;1.00;;
23410;SDS011;11878;51.774;7.220;2023-07-30T16:07:48;5.00;;;1.43;;
23410;SDS011;11878;51.774;7.220;2023-07-30T16:11:06;5.53;;;1.20;;
23410;SDS011;11878;51.774;7.220;2023-07-30T16:14:10;6.03;;;1.00;;
23410;SDS011;11878;51.774;7.220;2023-07-30T16:17:17;10.70;;;1.20;;
23410;SDS011;11878;51.774;7.220;2023-07-30T16:20:32;2.73;;;1.10;;
23410;SDS011;11878;51.774;7.220;2023-07-30T16:23:43;5.80;;;1.10;;
23410;SDS011;11878;51.774;7.220;2023-07-30T16:26:49;5.77;;;1.13;;
23410;SDS011;11878;51.774;7.220;2023-07-30T16:29:58;3.43;;;1.07;;
23410;SDS011;11878;51.774;7.220;2023-07-30T16:33:20;6.27;;;1.20;;
23410;SDS011;11878;51.774;7.220;2023-07-30T16:36:27;4.60;;;1.00;;
23410;SDS011;11878;51.774;7.220;2023-07-30T16:39:29;4.90;;;0.90;;
23410;SDS011;11878;51.774;7.220;2023-07-30T16:42:32;3.93;;;1.03;;
23410;SDS011;11878;51.774;7.220;2023-07-30T16:45:34;7.50;;;0.80;;
23410;SDS011;11878;51.774;7.220;2023-07-30T16:48:40;4.23;;;0.90;;
23410;SDS011;11878;51.774;7.220;2023-07-30T16:51:42;4.27;;;0.97;;
23410;SDS011;11878;51.774;7.220;2023-07-30T16:55:02;4.53;;;0.90;;
23410;SDS011;11878;51.774;7.220;2023-07-30T16:58:19;3.50;;;0.70;;
23410;SDS011;11878;51.774;7.220;2023-07-30T17:01:31;6.83;;;1.10;;
23410;SDS011;11878;51.774;7.220;2023-07-30T17:04:47;4.83;;;0.83;;
23410;SDS011;11878;51.774;7.220;2023-07-30T17:08:20;2.80;;;0.83;;
23410;SDS011;11878;51.774;7.220;2023-07-30T17:11:28;5.53;;;0.83;;
23410;SDS011;11878;51.774;7.220;2023-07-30T17:14:40;4.17;;;0.70;;
23410;SDS011;11878;51.774;7.220;2023-07-30T17:17:48;3.27;;;1.03;;
23410;SDS011;11878;51.774;7.220;2023-07-30T17:21:22;5.00;;;1.33;;
23410;SDS011;11878;51.774;7.220;2023-07-30T17:24:32;4.57;;;0.80;;
23410;SDS011;11878;51.774;7.220;2023-07-30T17:27:42;2.33;;;0.80;;
23410;SDS011;11878;51.774;7.220;2023-07-30T17:30:51;5.03;;;0.83;;
23410;SDS011;11878;51.774;7.220;2023-07-30T17:33:59;2.90;;;1.00;;
23410;SDS011;11878;51.774;7.220;2023-07-30T17:37:09;4.87;;;1.20;;
23410;SDS011;11878;51.774;7.220;2023-07-30T17:40:17;7.70;;;1.30;;
23410;SDS011;11878;51.774;7.220;2023-07-30T17:43:24;3.23;;;1.30;;
23410;SDS011;11878;51.774;7.220;2023-07-30T17:46:26;4.33;;;0.90;;
23410;SDS011;11878;51.774;7.220;2023-07-30T17:49:28;7.07;;;0.80;;
23410;SDS011;11878;51.774;7.220;2023-07-30T17:52:37;8.97;;;0.93;;
23410;SDS011;11878;51.774;7.220;2023-07-30T17:55:43;3.47;;;0.80;;
23410;SDS011;11878;51.774;7.220;2023-07-30T17:58:59;3.70;;;0.90;;
23410;SDS011;11878;51.774;7.220;2023-07-30T18:02:04;5.70;;;0.80;;
23410;SDS011;11878;51.774;7.220;2023-07-30T18:05:07;11.60;;;1.70;;
23410;SDS011;11878;51.774;7.220;2023-07-30T18:08:18;3.07;;;0.77;;
23410;SDS011;11878;51.774;7.220;2023-07-30T18:11:20;2.77;;;0.70;;
23410;SDS011;11878;51.774;7.220;2023-07-30T18:14:35;2.10;;;0.80;;
23410;SDS011;11878;51.774;7.220;2023-07-30T18:17:50;5.37;;;1.10;;
23410;SDS011;11878;51.774;7.220;2023-07-30T18:21:01;5.13;;;0.90;;
23410;SDS011;11878;51.774;7.220;2023-07-30T18:24:03;6.20;;;1.07;;
23410;SDS011;11878;51.774;7.220;2023-07-30T18:27:08;6.97;;;0.90;;
23410;SDS011;11878;51.774;7.220;2023-07-30T18:30:35;6.63;;;1.17;;
23410;SDS011;11878;51.774;7.220;2023-07-30T18:33:52;2.60;;;0.87;;
23410;SDS011;11878;51.774;7.220;2023-07-30T18:36:58;3.70;;;0.80;;